sensor_id;sensor_type;location;lat;lon;timestamp;temperature;humidity
13416;DHT22;6779;50.150;8.680;2022-07-17T00:00:02;17.80;99.90
13416;DHT22;6779;50.150;8.680;2022-07-17T00:02:27;17.80;99.90
13416;DHT22;6779;50.150;8.680;2022-07-17T00:04:53;17.70;99.90
13416;DHT22;6779;50.150;8.680;2022-07-17T00:07:18;17.70;99.90
13416;DHT22;6779;50.150;8.680;2022-07-17T00:09:44;17.70;99.90
13416;DHT22;6779;50.150;8.680;2022-07-17T00:12:10;17.70;99.90
13416;DHT22;6779;50.150;8.680;2022-07-17T00:14:35;17.60;99.90
13416;DHT22;6779;50.150;8.680;2022-07-17T00:17:01;17.60;99.90
13416;DHT22;6779;50.150;8.680;2022-07-17T00:19:27;17.50;99.90
13416;DHT22;6779;50.150;8.680;2022-07-17T00:21:53;17.60;99.90
13416;DHT22;6779;50.150;8.680;2022-07-17T00:24:18;17.60;99.90
13416;DHT22;6779;50.150;8.680;2022-07-17T00:26:48;17.50;99.90
13416;DHT22;6779;50.150;8.680;2022-07-17T00:29:14;17.50;99.90
13416;DHT22;6779;50.150;8.680;2022-07-17T00:31:39;17.50;99.90
13416;DHT22;6779;50.150;8.680;2022-07-17T00:34:05;17.50;99.90
13416;DHT22;6779;50.150;8.680;2022-07-17T00:36:30;17.50;99.90
13416;DHT22;6779;50.150;8.680;2022-07-17T00:38:56;17.50;99.90
13416;DHT22;6779;50.150;8.680;2022-07-17T00:41:22;17.50;99.90
13416;DHT22;6779;50.150;8.680;2022-07-17T00:43:47;17.40;99.90
13416;DHT22;6779;50.150;8.680;2022-07-17T00:46:13;17.40;99.90
13416;DHT22;6779;50.150;8.680;2022-07-17T00:48:38;17.30;99.90
13416;DHT22;6779;50.150;8.680;2022-07-17T00:51:04;17.40;99.90
13416;DHT22;6779;50.150;8.680;2022-07-17T00:53:33;17.30;99.90
13416;DHT22;6779;50.150;8.680;2022-07-17T00:56:05;17.30;99.90
13416;DHT22;6779;50.150;8.680;2022-07-17T00:58:35;17.20;99.90
13416;DHT22;6779;50.150;8.680;2022-07-17T01:01:04;17.20;99.90
13416;DHT22;6779;50.150;8.680;2022-07-17T01:03:32;17.20;99.90
13416;DHT22;6779;50.150;8.680;2022-07-17T01:05:57;17.20;99.90
13416;DHT22;6779;50.150;8.680;2022-07-17T01:08:23;17.10;99.90
13416;DHT22;6779;50.150;8.680;2022-07-17T01:10:48;17.20;99.90
13416;DHT22;6779;50.150;8.680;2022-07-17T01:13:15;17.10;99.90
13416;DHT22;6779;50.150;8.680;2022-07-17T01:15:41;17.10;99.90
13416;DHT22;6779;50.150;8.680;2022-07-17T01:18:08;17.00;99.90
13416;DHT22;6779;50.150;8.680;2022-07-17T01:20:35;17.00;99.90
13416;DHT22;6779;50.150;8.680;2022-07-17T01:23:01;17.00;99.90
13416;DHT22;6779;50.150;8.680;2022-07-17T01:25:26;16.90;99.90
13416;DHT22;6779;50.150;8.680;2022-07-17T01:27:52;16.90;99.90
13416;DHT22;6779;50.150;8.680;2022-07-17T01:30:18;16.90;99.90
13416;DHT22;6779;50.150;8.680;2022-07-17T01:32:44;16.80;99.90
13416;DHT22;6779;50.150;8.680;2022-07-17T01:35:12;16.80;99.90
13416;DHT22;6779;50.150;8.680;2022-07-17T01:37:42;16.70;99.90
13416;DHT22;6779;50.150;8.680;2022-07-17T01:40:09;16.60;99.90
13416;DHT22;6779;50.150;8.680;2022-07-17T01:42:39;16.50;99.90
13416;DHT22;6779;50.150;8.680;2022-07-17T01:45:07;16.40;99.90
13416;DHT22;6779;50.150;8.680;2022-07-17T01:47:33;16.30;99.90
13416;DHT22;6779;50.150;8.680;2022-07-17T01:50:00;16.30;99.90
13416;DHT22;6779;50.150;8.680;2022-07-17T01:52:26;16.20;99.90
13416;DHT22;6779;50.150;8.680;2022-07-17T01:54:52;16.20;99.90
13416;DHT22;6779;50.150;8.680;2022-07-17T01:57:19;16.10;99.90
13416;DHT22;6779;50.150;8.680;2022-07-17T01:59:45;16.10;99.90
13416;DHT22;6779;50.150;8.680;2022-07-17T02:02:11;16.10;99.90
13416;DHT22;6779;50.150;8.680;2022-07-17T02:04:38;16.10;99.90
13416;DHT22;6779;50.150;8.680;2022-07-17T02:07:07;16.10;99.90
13416;DHT22;6779;50.150;8.680;2022-07-17T02:09:32;16.10;99.90
13416;DHT22;6779;50.150;8.680;2022-07-17T02:11:58;16.10;99.90
13416;DHT22;6779;50.150;8.680;2022-07-17T02:14:24;16.00;99.90
13416;DHT22;6779;50.150;8.680;2022-07-17T02:16:50;16.00;99.90
13416;DHT22;6779;50.150;8.680;2022-07-17T02:19:16;15.90;99.90
13416;DHT22;6779;50.150;8.680;2022-07-17T02:21:41;15.90;99.90
13416;DHT22;6779;50.150;8.680;2022-07-17T02:24:07;15.90;99.90
13416;DHT22;6779;50.150;8.680;2022-07-17T02:26:33;15.90;99.90
13416;DHT22;6779;50.150;8.680;2022-07-17T02:28:58;15.90;99.90
13416;DHT22;6779;50.150;8.680;2022-07-17T02:31:24;15.90;99.90
13416;DHT22;6779;50.150;8.680;2022-07-17T02:33:50;15.90;99.90
13416;DHT22;6779;50.150;8.680;2022-07-17T02:36:16;16.00;99.90
13416;DHT22;6779;50.150;8.680;2022-07-17T02:38:41;16.00;99.90
13416;DHT22;6779;50.150;8.680;2022-07-17T02:41:07;15.90;99.90
13416;DHT22;6779;50.150;8.680;2022-07-17T02:43:33;15.90;99.90
13416;DHT22;6779;50.150;8.680;2022-07-17T02:46:00;15.90;99.90
13416;DHT22;6779;50.150;8.680;2022-07-17T02:48:26;15.80;99.90
13416;DHT22;6779;50.150;8.680;2022-07-17T02:50:51;15.70;99.90
13416;DHT22;6779;50.150;8.680;2022-07-17T02:53:17;15.60;99.90
13416;DHT22;6779;50.150;8.680;2022-07-17T02:55:42;15.50;99.90
13416;DHT22;6779;50.150;8.680;2022-07-17T02:58:08;15.50;99.90
13416;DHT22;6779;50.150;8.680;2022-07-17T03:00:33;15.40;99.90
13416;DHT22;6779;50.150;8.680;2022-07-17T03:02:59;15.40;99.90
13416;DHT22;6779;50.150;8.680;2022-07-17T03:05:25;15.40;99.90
13416;DHT22;6779;50.150;8.680;2022-07-17T03:07:50;15.30;99.90
13416;DHT22;6779;50.150;8.680;2022-07-17T03:10:16;15.30;99.90
13416;DHT22;6779;50.150;8.680;2022-07-17T03:12:42;15.30;99.90
13416;DHT22;6779;50.150;8.680;2022-07-17T03:15:09;15.30;99.90
13416;DHT22;6779;50.150;8.680;2022-07-17T03:17:35;15.30;99.90
13416;DHT22;6779;50.150;8.680;2022-07-17T03:20:03;15.30;99.90
13416;DHT22;6779;50.150;8.680;2022-07-17T03:22:28;15.30;99.90
13416;DHT22;6779;50.150;8.680;2022-07-17T03:24:54;15.30;99.90
13416;DHT22;6779;50.150;8.680;2022-07-17T03:27:20;15.30;99.90
13416;DHT22;6779;50.150;8.680;2022-07-17T03:29:45;15.30;99.90
13416;DHT22;6779;50.150;8.680;2022-07-17T03:32:11;15.30;99.90
13416;DHT22;6779;50.150;8.680;2022-07-17T03:34:37;15.30;99.90
13416;DHT22;6779;50.150;8.680;2022-07-17T03:37:04;15.30;99.90
13416;DHT22;6779;50.150;8.680;2022-07-17T03:39:30;15.30;99.90
13416;DHT22;6779;50.150;8.680;2022-07-17T03:41:55;15.30;99.90
13416;DHT22;6779;50.150;8.680;2022-07-17T03:44:21;15.20;99.90
13416;DHT22;6779;50.150;8.680;2022-07-17T03:46:47;15.20;99.90
13416;DHT22;6779;50.150;8.680;2022-07-17T03:49:13;15.10;99.90
13416;DHT22;6779;50.150;8.680;2022-07-17T03:51:38;15.10;99.90
13416;DHT22;6779;50.150;8.680;2022-07-17T03:54:04;15.20;99.90
13416;DHT22;6779;50.150;8.680;2022-07-17T03:56:29;15.20;99.90
13416;DHT22;6779;50.150;8.680;2022-07-17T03:58:55;15.20;99.90
13416;DHT22;6779;50.150;8.680;2022-07-17T04:01:21;15.20;99.90
13416;DHT22;6779;50.150;8.680;2022-07-17T04:03:46;15.20;99.90
13416;DHT22;6779;50.150;8.680;2022-07-17T04:06:12;15.10;99.90
13416;DHT22;6779;50.150;8.680;2022-07-17T04:08:38;15.10;99.90
13416;DHT22;6779;50.150;8.680;2022-07-17T04:11:04;15.10;99.90
13416;DHT22;6779;50.150;8.680;2022-07-17T04:13:30;15.10;99.90
13416;DHT22;6779;50.150;8.680;2022-07-17T04:15:55;15.20;99.90
13416;DHT22;6779;50.150;8.680;2022-07-17T04:18:29;15.10;99.90
13416;DHT22;6779;50.150;8.680;2022-07-17T04:20:58;15.10;99.90
13416;DHT22;6779;50.150;8.680;2022-07-17T04:23:23;15.10;99.90
13416;DHT22;6779;50.150;8.680;2022-07-17T04:25:49;15.00;99.90
13416;DHT22;6779;50.150;8.680;2022-07-17T04:28:15;15.20;99.90
13416;DHT22;6779;50.150;8.680;2022-07-17T04:30:41;15.10;99.90
13416;DHT22;6779;50.150;8.680;2022-07-17T04:33:07;15.20;99.90
13416;DHT22;6779;50.150;8.680;2022-07-17T04:35:33;15.10;99.90
13416;DHT22;6779;50.150;8.680;2022-07-17T04:37:58;15.20;99.90
13416;DHT22;6779;50.150;8.680;2022-07-17T04:40:24;15.10;99.90
13416;DHT22;6779;50.150;8.680;2022-07-17T04:42:50;15.10;99.90
13416;DHT22;6779;50.150;8.680;2022-07-17T04:45:15;15.10;99.90
13416;DHT22;6779;50.150;8.680;2022-07-17T04:47:41;15.20;99.90
13416;DHT22;6779;50.150;8.680;2022-07-17T04:50:08;15.10;99.90
13416;DHT22;6779;50.150;8.680;2022-07-17T04:52:34;15.10;99.90
13416;DHT22;6779;50.150;8.680;2022-07-17T04:54:59;15.10;99.90
13416;DHT22;6779;50.150;8.680;2022-07-17T04:57:25;15.20;99.90
13416;DHT22;6779;50.150;8.680;2022-07-17T04:59:51;15.10;99.90
13416;DHT22;6779;50.150;8.680;2022-07-17T05:02:17;15.20;99.90
13416;DHT22;6779;50.150;8.680;2022-07-17T05:04:42;15.20;99.90
13416;DHT22;6779;50.150;8.680;2022-07-17T05:07:08;15.30;99.90
13416;DHT22;6779;50.150;8.680;2022-07-17T05:09:33;15.30;99.90
13416;DHT22;6779;50.150;8.680;2022-07-17T05:11:59;15.30;99.90
13416;DHT22;6779;50.150;8.680;2022-07-17T05:14:24;15.30;99.90
13416;DHT22;6779;50.150;8.680;2022-07-17T05:16:50;15.40;99.90
13416;DHT22;6779;50.150;8.680;2022-07-17T05:19:15;15.40;99.90
13416;DHT22;6779;50.150;8.680;2022-07-17T05:21:41;15.50;99.90
13416;DHT22;6779;50.150;8.680;2022-07-17T05:24:07;15.50;99.90
13416;DHT22;6779;50.150;8.680;2022-07-17T05:26:32;15.50;99.90
13416;DHT22;6779;50.150;8.680;2022-07-17T05:28:58;15.50;99.90
13416;DHT22;6779;50.150;8.680;2022-07-17T05:31:24;15.50;99.90
13416;DHT22;6779;50.150;8.680;2022-07-17T05:33:49;15.60;99.90
13416;DHT22;6779;50.150;8.680;2022-07-17T05:36:15;15.60;99.90
13416;DHT22;6779;50.150;8.680;2022-07-17T05:38:41;15.60;99.90
13416;DHT22;6779;50.150;8.680;2022-07-17T05:41:06;15.70;99.90
13416;DHT22;6779;50.150;8.680;2022-07-17T05:43:32;15.80;99.90
13416;DHT22;6779;50.150;8.680;2022-07-17T05:45:58;15.80;99.90
13416;DHT22;6779;50.150;8.680;2022-07-17T05:48:29;15.90;99.90
13416;DHT22;6779;50.150;8.680;2022-07-17T05:50:55;15.90;99.90
13416;DHT22;6779;50.150;8.680;2022-07-17T05:53:21;15.90;99.90
13416;DHT22;6779;50.150;8.680;2022-07-17T05:55:46;15.90;99.90
13416;DHT22;6779;50.150;8.680;2022-07-17T05:58:12;16.00;99.90
13416;DHT22;6779;50.150;8.680;2022-07-17T06:00:38;16.00;99.90
13416;DHT22;6779;50.150;8.680;2022-07-17T06:03:04;16.10;99.90
13416;DHT22;6779;50.150;8.680;2022-07-17T06:05:30;16.10;99.90
13416;DHT22;6779;50.150;8.680;2022-07-17T06:07:56;16.20;99.90
13416;DHT22;6779;50.150;8.680;2022-07-17T06:10:23;16.30;99.90
13416;DHT22;6779;50.150;8.680;2022-07-17T06:12:49;16.30;99.90
13416;DHT22;6779;50.150;8.680;2022-07-17T06:15:15;16.40;99.90
13416;DHT22;6779;50.150;8.680;2022-07-17T06:17:41;16.40;99.90
13416;DHT22;6779;50.150;8.680;2022-07-17T06:20:07;16.50;99.90
13416;DHT22;6779;50.150;8.680;2022-07-17T06:22:33;16.50;99.90
13416;DHT22;6779;50.150;8.680;2022-07-17T06:24:59;16.70;99.90
13416;DHT22;6779;50.150;8.680;2022-07-17T06:27:24;16.70;99.90
13416;DHT22;6779;50.150;8.680;2022-07-17T06:29:50;16.70;99.90
13416;DHT22;6779;50.150;8.680;2022-07-17T06:32:16;16.70;99.90
13416;DHT22;6779;50.150;8.680;2022-07-17T06:34:42;16.80;99.90
13416;DHT22;6779;50.150;8.680;2022-07-17T06:37:08;16.90;99.90
13416;DHT22;6779;50.150;8.680;2022-07-17T06:39:33;16.90;99.90
13416;DHT22;6779;50.150;8.680;2022-07-17T06:41:59;16.90;99.90
13416;DHT22;6779;50.150;8.680;2022-07-17T06:44:25;17.00;99.90
13416;DHT22;6779;50.150;8.680;2022-07-17T06:46:50;17.20;99.90
13416;DHT22;6779;50.150;8.680;2022-07-17T06:49:16;17.20;99.90
13416;DHT22;6779;50.150;8.680;2022-07-17T06:51:41;17.30;99.90
13416;DHT22;6779;50.150;8.680;2022-07-17T06:54:11;17.40;99.90
13416;DHT22;6779;50.150;8.680;2022-07-17T06:56:37;17.40;99.90
13416;DHT22;6779;50.150;8.680;2022-07-17T06:59:02;17.50;99.90
13416;DHT22;6779;50.150;8.680;2022-07-17T07:01:28;17.60;99.90
13416;DHT22;6779;50.150;8.680;2022-07-17T07:03:54;17.60;99.90
13416;DHT22;6779;50.150;8.680;2022-07-17T07:06:19;17.70;99.90
13416;DHT22;6779;50.150;8.680;2022-07-17T07:08:45;17.70;99.90
13416;DHT22;6779;50.150;8.680;2022-07-17T07:11:10;17.80;99.90
13416;DHT22;6779;50.150;8.680;2022-07-17T07:13:36;17.90;99.90
13416;DHT22;6779;50.150;8.680;2022-07-17T07:16:01;18.00;99.90
13416;DHT22;6779;50.150;8.680;2022-07-17T07:18:27;18.10;99.90
13416;DHT22;6779;50.150;8.680;2022-07-17T07:20:53;18.10;99.90
13416;DHT22;6779;50.150;8.680;2022-07-17T07:23:18;18.20;99.90
13416;DHT22;6779;50.150;8.680;2022-07-17T07:25:44;18.20;99.90
13416;DHT22;6779;50.150;8.680;2022-07-17T07:28:10;18.30;99.90
13416;DHT22;6779;50.150;8.680;2022-07-17T07:30:36;18.40;99.90
13416;DHT22;6779;50.150;8.680;2022-07-17T07:33:01;18.50;99.90
13416;DHT22;6779;50.150;8.680;2022-07-17T07:35:27;18.50;99.90
13416;DHT22;6779;50.150;8.680;2022-07-17T07:37:53;18.60;99.90
13416;DHT22;6779;50.150;8.680;2022-07-17T07:40:18;18.70;99.90
13416;DHT22;6779;50.150;8.680;2022-07-17T07:42:44;18.80;99.90
13416;DHT22;6779;50.150;8.680;2022-07-17T07:45:09;18.90;99.90
13416;DHT22;6779;50.150;8.680;2022-07-17T07:47:47;18.90;99.90
13416;DHT22;6779;50.150;8.680;2022-07-17T07:50:13;19.00;99.90
13416;DHT22;6779;50.150;8.680;2022-07-17T07:52:39;19.00;99.90
13416;DHT22;6779;50.150;8.680;2022-07-17T07:55:06;19.00;99.90
13416;DHT22;6779;50.150;8.680;2022-07-17T07:57:33;19.10;99.90
13416;DHT22;6779;50.150;8.680;2022-07-17T07:59:59;19.20;99.90
13416;DHT22;6779;50.150;8.680;2022-07-17T08:02:24;19.20;99.90
13416;DHT22;6779;50.150;8.680;2022-07-17T08:04:50;19.20;99.90
13416;DHT22;6779;50.150;8.680;2022-07-17T08:07:16;19.40;99.90
13416;DHT22;6779;50.150;8.680;2022-07-17T08:09:41;19.60;99.90
13416;DHT22;6779;50.150;8.680;2022-07-17T08:12:07;19.70;99.90
13416;DHT22;6779;50.150;8.680;2022-07-17T08:14:32;19.70;99.90
13416;DHT22;6779;50.150;8.680;2022-07-17T08:16:58;19.60;99.90
13416;DHT22;6779;50.150;8.680;2022-07-17T08:19:24;19.70;99.90
13416;DHT22;6779;50.150;8.680;2022-07-17T08:21:49;19.80;99.90
13416;DHT22;6779;50.150;8.680;2022-07-17T08:24:15;19.80;99.90
13416;DHT22;6779;50.150;8.680;2022-07-17T08:26:42;19.90;99.90
13416;DHT22;6779;50.150;8.680;2022-07-17T08:29:07;20.00;99.90
13416;DHT22;6779;50.150;8.680;2022-07-17T08:31:33;20.10;99.90
13416;DHT22;6779;50.150;8.680;2022-07-17T08:33:58;20.30;99.90
13416;DHT22;6779;50.150;8.680;2022-07-17T08:36:24;20.50;99.90
13416;DHT22;6779;50.150;8.680;2022-07-17T08:38:50;20.50;99.90
13416;DHT22;6779;50.150;8.680;2022-07-17T08:41:16;20.50;99.90
13416;DHT22;6779;50.150;8.680;2022-07-17T08:43:42;20.60;99.90
13416;DHT22;6779;50.150;8.680;2022-07-17T08:46:10;20.50;99.90
13416;DHT22;6779;50.150;8.680;2022-07-17T08:48:40;20.80;99.90
13416;DHT22;6779;50.150;8.680;2022-07-17T08:51:08;21.00;99.90
13416;DHT22;6779;50.150;8.680;2022-07-17T08:53:34;21.10;99.90
13416;DHT22;6779;50.150;8.680;2022-07-17T08:55:59;21.20;99.90
13416;DHT22;6779;50.150;8.680;2022-07-17T08:58:25;21.30;99.90
13416;DHT22;6779;50.150;8.680;2022-07-17T09:00:51;21.50;99.90
13416;DHT22;6779;50.150;8.680;2022-07-17T09:03:17;21.70;99.90
13416;DHT22;6779;50.150;8.680;2022-07-17T09:05:43;21.90;99.90
13416;DHT22;6779;50.150;8.680;2022-07-17T09:08:18;21.90;99.90
13416;DHT22;6779;50.150;8.680;2022-07-17T09:10:46;22.10;99.90
13416;DHT22;6779;50.150;8.680;2022-07-17T09:15:50;22.80;99.90
13416;DHT22;6779;50.150;8.680;2022-07-17T09:18:15;23.20;99.90
13416;DHT22;6779;50.150;8.680;2022-07-17T09:20:50;24.00;99.90
13416;DHT22;6779;50.150;8.680;2022-07-17T09:23:18;25.00;99.90
13416;DHT22;6779;50.150;8.680;2022-07-17T09:25:46;25.60;99.90
13416;DHT22;6779;50.150;8.680;2022-07-17T09:28:13;27.10;99.90
13416;DHT22;6779;50.150;8.680;2022-07-17T09:30:42;29.70;99.90
13416;DHT22;6779;50.150;8.680;2022-07-17T09:33:12;31.00;99.90
13416;DHT22;6779;50.150;8.680;2022-07-17T09:36:09;32.00;99.90
13416;DHT22;6779;50.150;8.680;2022-07-17T09:38:40;31.70;99.90
13416;DHT22;6779;50.150;8.680;2022-07-17T09:41:14;32.10;99.90
13416;DHT22;6779;50.150;8.680;2022-07-17T09:43:48;32.40;99.90
13416;DHT22;6779;50.150;8.680;2022-07-17T09:46:24;32.40;99.90
13416;DHT22;6779;50.150;8.680;2022-07-17T09:48:52;33.30;99.90
13416;DHT22;6779;50.150;8.680;2022-07-17T09:51:39;33.00;99.90
13416;DHT22;6779;50.150;8.680;2022-07-17T09:54:06;33.80;99.90
13416;DHT22;6779;50.150;8.680;2022-07-17T09:56:34;33.50;99.90
13416;DHT22;6779;50.150;8.680;2022-07-17T09:59:06;33.80;99.90
13416;DHT22;6779;50.150;8.680;2022-07-17T10:01:32;33.40;99.90
13416;DHT22;6779;50.150;8.680;2022-07-17T10:03:58;33.20;99.90
13416;DHT22;6779;50.150;8.680;2022-07-17T10:06:25;34.00;99.90
13416;DHT22;6779;50.150;8.680;2022-07-17T10:08:52;33.90;99.90
13416;DHT22;6779;50.150;8.680;2022-07-17T10:11:20;34.10;99.90
13416;DHT22;6779;50.150;8.680;2022-07-17T10:13:47;34.60;99.90
13416;DHT22;6779;50.150;8.680;2022-07-17T10:16:23;34.20;99.90
13416;DHT22;6779;50.150;8.680;2022-07-17T10:18:49;34.60;99.90
13416;DHT22;6779;50.150;8.680;2022-07-17T10:21:18;34.00;99.90
13416;DHT22;6779;50.150;8.680;2022-07-17T10:29:01;34.40;99.90
13416;DHT22;6779;50.150;8.680;2022-07-17T10:31:29;34.50;99.90
13416;DHT22;6779;50.150;8.680;2022-07-17T10:34:03;35.30;99.90
13416;DHT22;6779;50.150;8.680;2022-07-17T10:36:40;34.90;99.90
13416;DHT22;6779;50.150;8.680;2022-07-17T10:39:20;34.90;99.90
13416;DHT22;6779;50.150;8.680;2022-07-17T10:41:57;34.70;99.90
13416;DHT22;6779;50.150;8.680;2022-07-17T10:44:27;35.10;99.90
13416;DHT22;6779;50.150;8.680;2022-07-17T10:46:54;35.60;99.90
13416;DHT22;6779;50.150;8.680;2022-07-17T10:49:20;35.50;99.90
13416;DHT22;6779;50.150;8.680;2022-07-17T10:51:46;35.60;99.90
13416;DHT22;6779;50.150;8.680;2022-07-17T10:54:12;35.80;99.90
13416;DHT22;6779;50.150;8.680;2022-07-17T10:56:39;35.30;99.90
13416;DHT22;6779;50.150;8.680;2022-07-17T10:59:06;36.10;99.90
13416;DHT22;6779;50.150;8.680;2022-07-17T11:01:31;36.20;99.90
13416;DHT22;6779;50.150;8.680;2022-07-17T11:04:00;36.00;99.90
13416;DHT22;6779;50.150;8.680;2022-07-17T11:06:31;36.20;99.90
13416;DHT22;6779;50.150;8.680;2022-07-17T11:14:10;36.70;99.90
13416;DHT22;6779;50.150;8.680;2022-07-17T11:16:36;37.70;99.90
13416;DHT22;6779;50.150;8.680;2022-07-17T11:19:01;37.90;99.90
13416;DHT22;6779;50.150;8.680;2022-07-17T11:21:27;37.60;99.90
13416;DHT22;6779;50.150;8.680;2022-07-17T11:23:54;37.30;99.90
13416;DHT22;6779;50.150;8.680;2022-07-17T11:26:21;36.80;99.90
13416;DHT22;6779;50.150;8.680;2022-07-17T11:28:48;37.30;99.90
13416;DHT22;6779;50.150;8.680;2022-07-17T11:31:23;37.80;99.90
13416;DHT22;6779;50.150;8.680;2022-07-17T11:34:01;37.50;99.90
13416;DHT22;6779;50.150;8.680;2022-07-17T11:36:33;37.90;99.90
13416;DHT22;6779;50.150;8.680;2022-07-17T11:39:08;37.50;99.90
13416;DHT22;6779;50.150;8.680;2022-07-17T11:41:45;37.30;99.90
13416;DHT22;6779;50.150;8.680;2022-07-17T11:44:17;36.60;99.90
13416;DHT22;6779;50.150;8.680;2022-07-17T11:46:45;35.70;99.90
13416;DHT22;6779;50.150;8.680;2022-07-17T11:49:23;34.90;99.90
13416;DHT22;6779;50.150;8.680;2022-07-17T11:51:48;33.40;99.90
13416;DHT22;6779;50.150;8.680;2022-07-17T11:54:16;33.40;99.90
13416;DHT22;6779;50.150;8.680;2022-07-17T11:56:50;33.30;99.90
13416;DHT22;6779;50.150;8.680;2022-07-17T11:59:30;33.40;99.90
13416;DHT22;6779;50.150;8.680;2022-07-17T12:02:05;33.40;99.90
13416;DHT22;6779;50.150;8.680;2022-07-17T12:04:31;33.00;99.90
13416;DHT22;6779;50.150;8.680;2022-07-17T12:07:01;32.80;99.90
13416;DHT22;6779;50.150;8.680;2022-07-17T12:09:28;32.40;99.90
13416;DHT22;6779;50.150;8.680;2022-07-17T12:11:54;32.30;99.90
13416;DHT22;6779;50.150;8.680;2022-07-17T12:14:20;32.40;99.90
13416;DHT22;6779;50.150;8.680;2022-07-17T12:16:46;31.80;99.90
13416;DHT22;6779;50.150;8.680;2022-07-17T12:19:15;30.90;99.90
13416;DHT22;6779;50.150;8.680;2022-07-17T12:21:50;31.20;99.90
13416;DHT22;6779;50.150;8.680;2022-07-17T12:24:22;31.40;99.90
13416;DHT22;6779;50.150;8.680;2022-07-17T12:26:49;31.20;99.90
13416;DHT22;6779;50.150;8.680;2022-07-17T12:29:15;31.00;99.90
13416;DHT22;6779;50.150;8.680;2022-07-17T12:31:41;30.80;99.90
13416;DHT22;6779;50.150;8.680;2022-07-17T12:34:07;30.90;99.90
13416;DHT22;6779;50.150;8.680;2022-07-17T12:36:32;31.00;99.90
13416;DHT22;6779;50.150;8.680;2022-07-17T12:38:58;30.90;99.90
13416;DHT22;6779;50.150;8.680;2022-07-17T12:41:24;30.70;99.90
13416;DHT22;6779;50.150;8.680;2022-07-17T12:43:49;30.90;99.90
13416;DHT22;6779;50.150;8.680;2022-07-17T12:46:15;30.80;99.90
13416;DHT22;6779;50.150;8.680;2022-07-17T12:48:43;30.70;99.90
13416;DHT22;6779;50.150;8.680;2022-07-17T12:51:09;30.70;99.90
13416;DHT22;6779;50.150;8.680;2022-07-17T12:53:36;30.40;99.90
13416;DHT22;6779;50.150;8.680;2022-07-17T12:56:02;29.90;99.90
13416;DHT22;6779;50.150;8.680;2022-07-17T12:58:29;29.70;99.90
13416;DHT22;6779;50.150;8.680;2022-07-17T13:00:55;30.10;99.90
13416;DHT22;6779;50.150;8.680;2022-07-17T13:03:21;30.40;99.90
13416;DHT22;6779;50.150;8.680;2022-07-17T13:05:47;30.50;99.90
13416;DHT22;6779;50.150;8.680;2022-07-17T13:08:12;30.60;99.90
13416;DHT22;6779;50.150;8.680;2022-07-17T13:10:38;30.50;99.90
13416;DHT22;6779;50.150;8.680;2022-07-17T13:13:04;30.40;99.90
13416;DHT22;6779;50.150;8.680;2022-07-17T13:15:30;30.00;99.90
13416;DHT22;6779;50.150;8.680;2022-07-17T13:17:56;29.90;99.90
13416;DHT22;6779;50.150;8.680;2022-07-17T13:20:22;30.20;99.90
13416;DHT22;6779;50.150;8.680;2022-07-17T13:22:47;30.40;99.90
13416;DHT22;6779;50.150;8.680;2022-07-17T13:25:13;30.20;99.90
13416;DHT22;6779;50.150;8.680;2022-07-17T13:27:38;30.30;99.90
13416;DHT22;6779;50.150;8.680;2022-07-17T13:30:05;30.60;99.90
13416;DHT22;6779;50.150;8.680;2022-07-17T13:32:30;30.70;99.90
13416;DHT22;6779;50.150;8.680;2022-07-17T13:34:56;30.60;99.90
13416;DHT22;6779;50.150;8.680;2022-07-17T13:37:21;30.70;99.90
13416;DHT22;6779;50.150;8.680;2022-07-17T13:39:47;30.70;99.90
13416;DHT22;6779;50.150;8.680;2022-07-17T13:42:12;30.70;99.90
13416;DHT22;6779;50.150;8.680;2022-07-17T13:44:38;30.60;99.90
13416;DHT22;6779;50.150;8.680;2022-07-17T13:47:04;30.50;99.90
13416;DHT22;6779;50.150;8.680;2022-07-17T13:49:29;30.50;99.90
13416;DHT22;6779;50.150;8.680;2022-07-17T13:51:55;30.50;99.90
13416;DHT22;6779;50.150;8.680;2022-07-17T13:54:20;30.40;99.90
13416;DHT22;6779;50.150;8.680;2022-07-17T13:56:46;30.30;99.90
13416;DHT22;6779;50.150;8.680;2022-07-17T13:59:12;29.70;99.90
13416;DHT22;6779;50.150;8.680;2022-07-17T14:01:37;29.70;99.90
13416;DHT22;6779;50.150;8.680;2022-07-17T14:04:03;29.50;99.90
13416;DHT22;6779;50.150;8.680;2022-07-17T14:06:29;29.60;99.90
13416;DHT22;6779;50.150;8.680;2022-07-17T14:08:54;29.60;99.90
13416;DHT22;6779;50.150;8.680;2022-07-17T14:11:20;29.50;99.90
13416;DHT22;6779;50.150;8.680;2022-07-17T14:13:46;29.50;99.90
13416;DHT22;6779;50.150;8.680;2022-07-17T14:16:12;29.70;99.90
13416;DHT22;6779;50.150;8.680;2022-07-17T14:18:37;29.60;99.90
13416;DHT22;6779;50.150;8.680;2022-07-17T14:21:23;29.60;99.90
13416;DHT22;6779;50.150;8.680;2022-07-17T14:23:49;29.50;99.90
13416;DHT22;6779;50.150;8.680;2022-07-17T14:26:15;29.50;99.90
13416;DHT22;6779;50.150;8.680;2022-07-17T14:28:40;29.50;99.90
13416;DHT22;6779;50.150;8.680;2022-07-17T14:31:06;29.50;99.90
13416;DHT22;6779;50.150;8.680;2022-07-17T14:33:31;29.50;99.90
13416;DHT22;6779;50.150;8.680;2022-07-17T14:35:57;29.60;99.90
13416;DHT22;6779;50.150;8.680;2022-07-17T14:38:22;29.60;99.90
13416;DHT22;6779;50.150;8.680;2022-07-17T14:40:48;29.60;99.90
13416;DHT22;6779;50.150;8.680;2022-07-17T14:43:14;29.40;99.90
13416;DHT22;6779;50.150;8.680;2022-07-17T14:45:39;29.50;99.90
13416;DHT22;6779;50.150;8.680;2022-07-17T14:48:05;29.30;99.90
13416;DHT22;6779;50.150;8.680;2022-07-17T14:50:30;29.20;99.90
13416;DHT22;6779;50.150;8.680;2022-07-17T14:52:56;29.30;99.90
13416;DHT22;6779;50.150;8.680;2022-07-17T14:55:22;29.30;99.90
13416;DHT22;6779;50.150;8.680;2022-07-17T14:57:47;29.20;99.90
13416;DHT22;6779;50.150;8.680;2022-07-17T15:00:13;29.10;99.90
13416;DHT22;6779;50.150;8.680;2022-07-17T15:02:40;29.20;99.90
13416;DHT22;6779;50.150;8.680;2022-07-17T15:05:07;29.00;99.90
13416;DHT22;6779;50.150;8.680;2022-07-17T15:07:33;29.10;99.90
13416;DHT22;6779;50.150;8.680;2022-07-17T15:09:58;29.10;99.90
13416;DHT22;6779;50.150;8.680;2022-07-17T15:12:24;29.10;99.90
13416;DHT22;6779;50.150;8.680;2022-07-17T15:14:50;29.10;99.90
13416;DHT22;6779;50.150;8.680;2022-07-17T15:17:15;28.90;99.90
13416;DHT22;6779;50.150;8.680;2022-07-17T15:19:41;28.90;99.90
13416;DHT22;6779;50.150;8.680;2022-07-17T15:22:07;28.90;99.90
13416;DHT22;6779;50.150;8.680;2022-07-17T15:24:32;28.70;99.90
13416;DHT22;6779;50.150;8.680;2022-07-17T15:26:58;28.80;99.90
13416;DHT22;6779;50.150;8.680;2022-07-17T15:29:23;28.80;99.90
13416;DHT22;6779;50.150;8.680;2022-07-17T15:31:49;28.90;99.90
13416;DHT22;6779;50.150;8.680;2022-07-17T15:34:15;28.90;99.90
13416;DHT22;6779;50.150;8.680;2022-07-17T15:36:40;28.90;99.90
13416;DHT22;6779;50.150;8.680;2022-07-17T15:39:06;28.90;99.90
13416;DHT22;6779;50.150;8.680;2022-07-17T15:41:32;28.90;99.90
13416;DHT22;6779;50.150;8.680;2022-07-17T15:43:57;28.80;99.90
13416;DHT22;6779;50.150;8.680;2022-07-17T15:46:23;28.80;99.90
13416;DHT22;6779;50.150;8.680;2022-07-17T15:48:49;28.80;99.90
13416;DHT22;6779;50.150;8.680;2022-07-17T15:51:14;28.70;99.90
13416;DHT22;6779;50.150;8.680;2022-07-17T15:53:40;28.40;99.90